createdAt,value
2022-08-02T00:02:56.928Z,2.40
2022-08-02T00:08:00.336Z,2.10
2022-08-02T00:13:03.634Z,3.00
2022-08-02T00:18:06.816Z,2.33
2022-08-02T00:23:10.233Z,2.50
2022-08-02T00:28:13.793Z,2.70
2022-08-02T00:34:27.211Z,3.38
2022-08-02T00:38:52.046Z,2.55
2022-08-02T00:44:21.535Z,2.35
2022-08-02T00:49:24.924Z,2.80
2022-08-02T00:54:28.512Z,2.95
2022-08-02T00:59:31.822Z,2.63
2022-08-02T01:04:35.042Z,2.80
2022-08-02T01:09:38.499Z,2.78
2022-08-02T01:14:44.678Z,3.08
2022-08-02T01:20:11.131Z,3.00
2022-08-02T01:25:53.700Z,2.92
2022-08-02T01:31:07.692Z,2.92
2022-08-02T01:36:17.456Z,3.20
2022-08-02T01:41:26.642Z,3.42
2022-08-02T01:46:33.551Z,3.30
2022-08-02T01:51:56.950Z,2.90
2022-08-02T01:57:09.515Z,3.70
2022-08-02T02:02:18.368Z,3.50
2022-08-02T02:07:24.350Z,3.40
2022-08-02T02:12:29.674Z,3.13
2022-08-02T02:18:11.197Z,3.15
2022-08-02T02:22:59.350Z,3.13
2022-08-02T02:28:07.593Z,3.15
2022-08-02T02:33:12.349Z,3.20
2022-08-02T02:38:19.310Z,3.00
2022-08-02T02:43:23.570Z,3.50
2022-08-02T02:48:28.391Z,3.33
2022-08-02T02:54:31.936Z,3.33
2022-08-02T02:59:12.150Z,3.60
2022-08-02T03:04:16.229Z,3.58
2022-08-02T03:09:22.209Z,3.55
2022-08-02T03:14:31.851Z,3.05
2022-08-02T03:19:35.629Z,3.83
2022-08-02T03:24:39.970Z,3.65
2022-08-02T03:29:43.454Z,3.40
2022-08-02T03:34:48.309Z,3.38
2022-08-02T03:39:54.510Z,3.42
2022-08-02T03:44:59.211Z,3.53
2022-08-02T03:50:03.252Z,3.75
2022-08-02T03:55:07.734Z,3.10
2022-08-02T04:00:14.182Z,3.25
2022-08-02T04:05:18.749Z,4.00
2022-08-02T04:10:22.215Z,3.05
2022-08-02T04:15:27.631Z,3.50
2022-08-02T04:20:34.902Z,3.38
2022-08-02T04:25:42.090Z,3.25
2022-08-02T04:30:50.770Z,2.88
2022-08-02T04:35:59.505Z,3.58
2022-08-02T04:41:03.630Z,2.80
2022-08-02T04:46:07.019Z,3.45
2022-08-02T04:51:10.549Z,2.65
2022-08-02T04:56:13.831Z,2.80
2022-08-02T05:01:17.228Z,2.78
2022-08-02T05:06:20.649Z,2.90
2022-08-02T05:11:34.385Z,2.53
2022-08-02T05:16:39.371Z,2.72
2022-08-02T05:21:42.831Z,2.30
2022-08-02T05:26:46.251Z,2.75
2022-08-02T05:31:55.251Z,2.60
2022-08-02T05:36:58.612Z,2.70
2022-08-02T05:42:06.050Z,2.78
2022-08-02T05:47:11.388Z,2.65
2022-08-02T05:52:24.609Z,2.60
2022-08-02T05:57:41.859Z,2.60
2022-08-02T06:02:59.655Z,2.40
2022-08-02T06:08:07.684Z,2.17
2022-08-02T06:13:23.431Z,2.42
2022-08-02T06:18:30.260Z,2.80
2022-08-02T06:23:34.030Z,2.00
2022-08-02T06:28:41.710Z,2.20
2022-08-02T06:33:45.250Z,1.98
2022-08-02T06:39:11.532Z,2.05
2022-08-02T06:44:45.618Z,1.98
2022-08-02T06:49:52.789Z,2.30
2022-08-02T06:55:05.370Z,2.05
2022-08-02T07:00:10.151Z,2.08
2022-08-02T07:05:24.651Z,1.63
2022-08-02T07:10:27.836Z,1.67
2022-08-02T07:15:33.410Z,1.75
2022-08-02T07:20:37.430Z,1.88
2022-08-02T07:26:01.992Z,1.58
2022-08-02T07:31:08.450Z,1.60
2022-08-02T07:36:16.825Z,1.65
2022-08-02T07:41:26.580Z,1.67
2022-08-02T07:46:30.210Z,1.83
2022-08-02T07:51:36.772Z,1.98
2022-08-02T07:56:39.931Z,1.70
2022-08-02T08:01:46.053Z,1.83
2022-08-02T08:06:52.573Z,1.73
2022-08-02T08:11:55.874Z,1.77
2022-08-02T08:16:58.928Z,1.60
2022-08-02T08:22:04.168Z,1.48
2022-08-02T08:27:07.288Z,1.77
2022-08-02T08:32:15.740Z,1.60
2022-08-02T08:37:20.581Z,1.83
2022-08-02T08:42:24.325Z,1.67
2022-08-02T08:47:40.428Z,1.80
2022-08-02T08:52:49.668Z,1.80
2022-08-02T08:57:55.211Z,1.60
2022-08-02T09:02:59.890Z,1.92
2022-08-02T09:08:04.124Z,2.05
2022-08-02T09:13:37.701Z,2.33
2022-08-02T09:18:46.965Z,1.27
2022-08-02T09:23:53.560Z,1.80
2022-08-02T09:29:03.643Z,1.98
2022-08-02T09:34:07.696Z,1.83
2022-08-02T09:39:18.451Z,1.80
2022-08-02T09:44:24.911Z,1.38
2022-08-02T09:49:27.977Z,1.70
2022-08-02T09:54:31.454Z,1.25
2022-08-02T09:59:35.044Z,1.65
2022-08-02T10:04:52.487Z,1.30
2022-08-02T10:09:57.370Z,1.63
2022-08-02T10:15:01.437Z,1.20
2022-08-02T10:20:05.581Z,1.58
2022-08-02T10:25:09.971Z,1.60
2022-08-02T10:30:13.794Z,1.65
2022-08-02T10:35:25.836Z,1.55
2022-08-02T10:40:45.013Z,1.50
2022-08-02T10:45:51.571Z,1.30
2022-08-02T10:50:55.089Z,1.60
2022-08-02T10:56:03.873Z,1.70
2022-08-02T11:01:38.682Z,1.15
2022-08-02T11:07:09.722Z,1.90
2022-08-02T11:12:15.944Z,1.45
2022-08-02T11:17:20.750Z,1.38
2022-08-02T11:22:25.977Z,1.30
2022-08-02T11:27:32.063Z,1.02
2022-08-02T11:32:36.993Z,1.17
2022-08-02T11:37:43.008Z,1.05
2022-08-02T11:42:51.274Z,1.23
2022-08-02T11:47:55.747Z,1.20
2022-08-02T11:52:59.766Z,1.65
2022-08-02T11:58:06.249Z,1.13
2022-08-02T12:03:10.000Z,1.10
2022-08-02T12:08:13.396Z,0.88
2022-08-02T12:13:17.150Z,1.45
2022-08-02T12:18:41.869Z,1.20
2022-08-02T12:23:59.610Z,1.30
2022-08-02T12:29:04.470Z,1.17
2022-08-02T12:34:18.878Z,0.90
2022-08-02T12:39:22.058Z,1.30
2022-08-02T12:44:28.018Z,1.30
2022-08-02T12:49:32.744Z,1.20
2022-08-02T12:54:42.591Z,1.10
2022-08-02T12:59:53.266Z,1.20
2022-08-02T13:05:00.269Z,1.90
2022-08-02T13:10:03.863Z,1.40
2022-08-02T13:15:12.333Z,1.45
2022-08-02T13:20:36.632Z,1.23
2022-08-02T13:25:45.489Z,1.33
2022-08-02T13:30:55.859Z,1.30
2022-08-02T13:36:00.186Z,1.40
2022-08-02T13:41:09.713Z,1.83
2022-08-02T13:46:13.179Z,1.48
2022-08-02T13:51:16.478Z,1.25
2022-08-02T13:56:19.794Z,0.93
2022-08-02T14:01:39.746Z,1.20
2022-08-02T14:06:43.513Z,0.88
2022-08-02T14:11:47.211Z,1.80
2022-08-02T14:16:50.938Z,1.00
2022-08-02T14:21:54.617Z,0.98
2022-08-02T14:27:16.239Z,1.30
2022-08-02T14:32:19.923Z,1.00
2022-08-02T14:37:34.960Z,1.05
2022-08-02T14:42:38.394Z,1.00
2022-08-02T14:47:41.810Z,1.02
2022-08-02T14:52:46.541Z,1.20
2022-08-02T14:57:53.476Z,1.20
2022-08-02T15:02:56.674Z,1.02
2022-08-02T15:08:00.297Z,1.33
2022-08-02T15:13:03.511Z,1.30
2022-08-02T15:18:06.813Z,0.90
2022-08-02T15:23:10.677Z,0.95
2022-08-02T15:28:18.190Z,1.23
2022-08-02T15:33:21.619Z,0.90
2022-08-02T15:38:25.081Z,1.00
2022-08-02T15:43:29.391Z,1.30
2022-08-02T15:48:32.810Z,1.17
2022-08-02T15:53:36.774Z,1.40
2022-08-02T15:58:44.173Z,1.27
2022-08-02T16:03:47.937Z,0.95
2022-08-02T16:08:54.637Z,1.10
2022-08-02T16:13:59.598Z,1.08
2022-08-02T16:19:46.546Z,0.75
2022-08-02T16:24:29.759Z,1.20
2022-08-02T16:29:33.558Z,1.02
2022-08-02T16:35:04.002Z,0.90
2022-08-02T16:40:00.418Z,0.82
2022-08-02T16:45:04.174Z,0.65
2022-08-02T16:50:10.654Z,0.70
2022-08-02T16:55:15.410Z,0.75
2022-08-02T17:00:19.237Z,0.75
2022-08-02T17:05:22.969Z,1.10
2022-08-02T17:10:38.121Z,1.02
2022-08-02T17:16:07.395Z,0.90
2022-08-02T17:21:08.427Z,0.70
2022-08-02T17:26:13.248Z,0.93
2022-08-02T17:31:17.002Z,1.02
2022-08-02T17:36:20.576Z,0.90
2022-08-02T17:41:37.779Z,1.00
2022-08-02T17:46:42.558Z,1.10
2022-08-02T17:52:48.661Z,2.40
2022-08-02T17:57:16.211Z,1.40
2022-08-02T18:02:19.299Z,1.42
2022-08-02T18:07:23.506Z,1.25
2022-08-02T18:12:28.355Z,2.17
2022-08-02T18:17:35.509Z,8.45
2022-08-02T18:28:03.274Z,6.18
2022-08-02T18:33:58.018Z,17.83
2022-08-02T18:38:32.522Z,9.20
2022-08-02T18:43:41.880Z,72.65
2022-08-02T18:48:47.831Z,47.60
2022-08-02T18:53:55.579Z,38.83
2022-08-02T18:58:59.143Z,18.23
2022-08-02T19:04:04.647Z,9.18
2022-08-02T19:09:13.136Z,14.98
2022-08-02T19:14:23.933Z,15.70
2022-08-02T19:19:31.438Z,13.75
2022-08-02T19:24:38.817Z,11.88
2022-08-02T19:29:48.810Z,10.05
2022-08-02T19:34:53.478Z,13.60
2022-08-02T19:39:58.834Z,13.20
2022-08-02T19:45:02.531Z,13.13
2022-08-02T19:50:09.317Z,10.13
2022-08-02T19:56:01.050Z,12.73
2022-08-02T20:00:36.529Z,14.52
2022-08-02T20:05:40.531Z,13.10
2022-08-02T20:10:45.858Z,11.30
2022-08-02T20:15:51.763Z,13.15
2022-08-02T20:21:03.692Z,12.43
2022-08-02T20:26:09.005Z,12.50
2022-08-02T20:31:13.270Z,11.20
2022-08-02T20:36:16.898Z,9.88
2022-08-02T20:41:21.884Z,10.37
2022-08-02T20:46:47.295Z,8.88
2022-08-02T20:51:54.580Z,9.00
2022-08-02T20:57:04.748Z,7.63
2022-08-02T21:02:12.954Z,8.13
2022-08-02T21:07:19.822Z,6.53
2022-08-02T21:12:29.901Z,6.53
2022-08-02T21:17:48.492Z,6.03
2022-08-02T21:23:00.171Z,5.67
2022-08-02T21:28:08.934Z,5.57
2022-08-02T21:33:23.869Z,7.37
2022-08-02T21:38:35.714Z,6.23
2022-08-02T21:43:43.992Z,5.60
2022-08-02T21:48:48.571Z,5.23
2022-08-02T21:54:17.480Z,5.30
2022-08-02T21:59:18.961Z,5.07
2022-08-02T22:04:32.536Z,7.23
2022-08-02T22:09:42.029Z,8.20
2022-08-02T22:14:54.494Z,9.07
2022-08-02T22:19:58.632Z,7.63
2022-08-02T22:25:04.950Z,6.20
2022-08-02T22:30:13.975Z,6.03
2022-08-02T22:35:25.472Z,5.00
2022-08-02T22:40:30.831Z,4.97
2022-08-02T22:45:38.125Z,5.03
2022-08-02T22:50:48.121Z,5.07
2022-08-02T22:56:01.130Z,6.73
2022-08-02T22:58:57.628Z,15.27
2022-08-02T23:01:07.835Z,8.53
2022-08-02T23:06:11.210Z,8.60
2022-08-02T23:11:16.590Z,6.50
2022-08-02T23:16:41.120Z,6.67
2022-08-02T23:22:02.619Z,6.63
2022-08-02T23:27:09.373Z,7.00
2022-08-02T23:32:16.584Z,5.50
2022-08-02T23:37:20.016Z,6.43
2022-08-02T23:42:25.791Z,6.77
2022-08-02T23:47:31.920Z,6.73
2022-08-02T23:52:38.272Z,7.33
2022-08-02T23:57:47.659Z,8.40
